createdAt,value
2019-06-08T00:00:23.258Z,959.13
2019-06-08T00:01:23.293Z,959.15
2019-06-08T00:02:23.237Z,959.11
2019-06-08T00:03:23.219Z,959.10
2019-06-08T00:04:23.200Z,959.10
2019-06-08T00:05:23.241Z,959.05
2019-06-08T00:06:23.223Z,959.02
2019-06-08T00:07:23.220Z,959.02
2019-06-08T00:08:23.161Z,959.00
2019-06-08T00:09:24.046Z,958.96
2019-06-08T00:10:25.609Z,958.90
2019-06-08T00:11:23.583Z,958.95
2019-06-08T00:12:23.355Z,958.97
2019-06-08T00:13:23.298Z,958.89
2019-06-08T00:14:23.490Z,959.01
2019-06-08T00:15:24.336Z,958.99
2019-06-08T00:16:23.766Z,959.00
2019-06-08T00:17:37.083Z,959.14
2019-06-08T00:18:24.105Z,959.13
2019-06-08T00:19:23.659Z,959.20
2019-06-08T00:20:23.750Z,959.30
2019-06-08T00:21:24.133Z,959.30
2019-06-08T00:22:23.896Z,959.31
2019-06-08T00:23:23.965Z,959.38
2019-06-08T00:24:24.071Z,959.43
2019-06-08T00:25:24.116Z,959.47
2019-06-08T00:26:24.228Z,959.45
2019-06-08T00:27:23.370Z,959.48
2019-06-08T00:28:22.942Z,959.43
2019-06-08T00:29:22.956Z,959.47
2019-06-08T00:30:22.942Z,959.48
2019-06-08T00:31:22.936Z,959.47
2019-06-08T00:32:22.904Z,959.44
2019-06-08T00:33:22.892Z,959.44
2019-06-08T00:34:22.882Z,959.43
2019-06-08T00:35:22.865Z,959.46
2019-06-08T00:36:23.072Z,959.52
2019-06-08T00:37:22.938Z,959.44
2019-06-08T00:38:23.051Z,959.53
2019-06-08T00:39:23.020Z,959.54
2019-06-08T00:40:23.158Z,959.59
2019-06-08T00:41:23.726Z,959.60
2019-06-08T00:42:23.338Z,959.63
2019-06-08T00:43:23.734Z,959.59
2019-06-08T00:44:23.377Z,959.68
2019-06-08T00:45:23.609Z,959.70
2019-06-08T00:46:23.635Z,959.68
2019-06-08T00:47:22.753Z,959.75
2019-06-08T00:48:22.782Z,959.73
2019-06-08T00:49:22.768Z,959.79
2019-06-08T00:50:22.934Z,959.74
2019-06-08T00:51:23.124Z,959.72
2019-06-08T00:52:23.209Z,959.80
2019-06-08T00:53:23.246Z,959.78
2019-06-08T00:54:23.495Z,959.69
2019-06-08T00:55:23.776Z,959.80
2019-06-08T00:56:23.783Z,959.75
2019-06-08T00:57:23.808Z,959.83
2019-06-08T00:58:22.637Z,959.77
2019-06-08T00:59:22.602Z,959.84
2019-06-08T01:00:22.684Z,959.78
2019-06-08T01:01:24.620Z,959.82
2019-06-08T01:02:22.642Z,959.83
2019-06-08T01:03:23.778Z,959.88
2019-06-08T01:04:22.760Z,959.88
2019-06-08T01:05:23.895Z,959.84
2019-06-08T01:06:23.001Z,959.91
2019-06-08T01:07:22.515Z,959.93
2019-06-08T01:08:23.808Z,959.97
2019-06-08T01:09:22.496Z,959.96
2019-06-08T01:10:23.454Z,959.92
2019-06-08T01:11:22.596Z,959.92
2019-06-08T01:12:22.639Z,959.94
2019-06-08T01:13:22.895Z,959.95
2019-06-08T01:14:22.938Z,959.93
2019-06-08T01:15:26.910Z,959.95
2019-06-08T01:16:23.457Z,959.97
2019-06-08T01:17:23.016Z,960.08
2019-06-08T01:18:22.983Z,960.11
2019-06-08T01:19:23.122Z,960.08
2019-06-08T01:20:23.533Z,960.08
2019-06-08T01:21:23.282Z,960.07
2019-06-08T01:22:23.612Z,960.10
2019-06-08T01:23:23.423Z,960.14
2019-06-08T01:24:23.631Z,960.16
2019-06-08T01:25:23.616Z,960.18
2019-06-08T01:26:22.388Z,960.20
2019-06-08T01:27:22.302Z,960.11
2019-06-08T01:28:22.287Z,960.11
2019-06-08T01:29:22.327Z,960.24
2019-06-08T01:30:22.381Z,960.19
2019-06-08T01:31:22.506Z,960.21
2019-06-08T01:32:22.328Z,960.26
2019-06-08T01:33:22.505Z,960.27
2019-06-08T01:34:22.819Z,960.28
2019-06-08T01:35:22.877Z,960.31
2019-06-08T01:36:22.788Z,960.24
2019-06-08T01:37:22.957Z,960.16
2019-06-08T01:38:22.932Z,960.13
2019-06-08T01:39:23.022Z,960.14
2019-06-08T01:40:23.254Z,960.18
2019-06-08T01:41:23.193Z,960.11
2019-06-08T01:42:23.344Z,960.09
2019-06-08T01:43:23.596Z,960.30
2019-06-08T01:44:22.134Z,960.21
2019-06-08T01:45:22.133Z,960.28
2019-06-08T01:46:22.100Z,960.28
2019-06-08T01:47:22.181Z,960.32
2019-06-08T01:48:22.370Z,960.23
2019-06-08T01:49:22.054Z,960.30
2019-06-08T01:50:22.433Z,960.34
2019-06-08T01:51:22.550Z,960.22
2019-06-08T01:52:22.484Z,960.26
2019-06-08T01:53:22.749Z,960.16
2019-06-08T01:54:22.838Z,960.30
2019-06-08T01:55:23.024Z,960.25
2019-06-08T01:56:22.922Z,960.28
2019-06-08T01:57:23.120Z,960.33
2019-06-08T01:58:23.277Z,960.35
2019-06-08T01:59:23.258Z,960.39
2019-06-08T02:00:32.529Z,960.37
2019-06-08T02:01:23.488Z,960.33
2019-06-08T02:02:21.953Z,960.40
2019-06-08T02:03:21.904Z,960.40
2019-06-08T02:04:21.913Z,960.47
2019-06-08T02:05:21.881Z,960.55
2019-06-08T02:06:21.912Z,960.52
2019-06-08T02:07:21.869Z,960.54
2019-06-08T02:08:21.852Z,960.59
2019-06-08T02:09:21.846Z,960.60
2019-06-08T02:10:21.836Z,960.56
2019-06-08T02:11:21.841Z,960.59
2019-06-08T02:12:21.808Z,960.68
2019-06-08T02:13:21.798Z,960.64
2019-06-08T02:14:21.815Z,960.68
2019-06-08T02:15:21.782Z,960.66
2019-06-08T02:16:21.763Z,960.58
2019-06-08T02:17:21.753Z,960.77
2019-06-08T02:18:35.624Z,960.74
2019-06-08T02:19:22.770Z,960.69
2019-06-08T02:20:21.727Z,960.72
2019-06-08T02:21:21.704Z,960.67
2019-06-08T02:22:21.693Z,960.78
2019-06-08T02:23:21.684Z,960.77
2019-06-08T02:24:21.680Z,960.80
2019-06-08T02:25:21.692Z,960.75
2019-06-08T02:26:21.648Z,960.67
2019-06-08T02:27:21.644Z,960.66
2019-06-08T02:28:21.625Z,960.70
2019-06-08T02:29:21.615Z,960.77
2019-06-08T02:30:21.650Z,960.76
2019-06-08T02:31:21.595Z,960.80
2019-06-08T02:32:21.585Z,960.81
2019-06-08T02:33:21.597Z,960.73
2019-06-08T02:34:21.568Z,960.87
2019-06-08T02:35:21.680Z,960.80
2019-06-08T02:36:21.545Z,960.79
2019-06-08T02:37:21.589Z,960.88
2019-06-08T02:38:21.539Z,960.87
2019-06-08T02:39:21.508Z,960.93
2019-06-08T02:40:21.496Z,960.92
2019-06-08T02:41:21.486Z,960.96
2019-06-08T02:42:21.477Z,960.93
2019-06-08T02:43:21.505Z,960.93
2019-06-08T02:44:21.491Z,960.96
2019-06-08T02:45:21.451Z,960.94
2019-06-08T02:46:21.441Z,961.02
2019-06-08T02:47:21.427Z,960.91
2019-06-08T02:48:21.432Z,960.96
2019-06-08T02:49:21.424Z,960.97
2019-06-08T02:50:21.393Z,960.98
2019-06-08T02:51:21.416Z,961.01
2019-06-08T02:52:21.372Z,961.01
2019-06-08T02:53:21.357Z,961.00
2019-06-08T02:54:21.379Z,961.10
2019-06-08T02:55:21.327Z,961.06
2019-06-08T02:56:21.346Z,961.06
2019-06-08T02:57:21.305Z,961.06
2019-06-08T02:58:21.306Z,961.00
2019-06-08T02:59:21.296Z,961.07
2019-06-08T03:00:21.310Z,961.06
2019-06-08T03:01:21.292Z,961.06
2019-06-08T03:02:21.280Z,961.11
2019-06-08T03:03:21.247Z,961.09
2019-06-08T03:04:21.230Z,961.08
2019-06-08T03:05:21.220Z,961.14
2019-06-08T03:06:21.249Z,961.12
2019-06-08T03:07:21.199Z,961.14
2019-06-08T03:08:21.188Z,961.14
2019-06-08T03:09:21.182Z,961.12
2019-06-08T03:10:21.171Z,961.15
2019-06-08T03:11:21.196Z,961.16
2019-06-08T03:12:21.139Z,961.15
2019-06-08T03:13:21.129Z,961.24
2019-06-08T03:14:21.122Z,961.21
2019-06-08T03:15:21.148Z,961.28
2019-06-08T03:16:21.099Z,961.28
2019-06-08T03:17:21.086Z,961.29
2019-06-08T03:18:21.093Z,961.31
2019-06-08T03:19:22.902Z,961.30
2019-06-08T03:20:21.092Z,961.33
2019-06-08T03:21:21.064Z,961.28
2019-06-08T03:22:21.031Z,961.34
2019-06-08T03:23:21.031Z,961.29
2019-06-08T03:24:21.021Z,961.34
2019-06-08T03:25:21.022Z,961.30
2019-06-08T03:26:21.034Z,961.29
2019-06-08T03:27:20.999Z,961.33
2019-06-08T03:28:20.970Z,961.37
2019-06-08T03:29:20.973Z,961.31
2019-06-08T03:30:20.962Z,961.43
2019-06-08T03:31:20.970Z,961.38
2019-06-08T03:32:20.932Z,961.36
2019-06-08T03:33:21.015Z,961.40
2019-06-08T03:34:20.907Z,961.41
2019-06-08T03:35:20.905Z,961.42
2019-06-08T03:36:20.949Z,961.47
2019-06-08T03:37:20.884Z,961.44
2019-06-08T03:38:20.889Z,961.55
2019-06-08T03:39:20.845Z,961.51
2019-06-08T03:40:20.884Z,961.47
2019-06-08T03:41:20.821Z,961.44
2019-06-08T03:42:20.811Z,961.46
2019-06-08T03:43:20.818Z,961.55
2019-06-08T03:44:20.815Z,961.59
2019-06-08T03:45:20.786Z,961.55
2019-06-08T03:46:20.772Z,961.57
2019-06-08T03:47:20.790Z,961.61
2019-06-08T03:48:20.742Z,961.59
2019-06-08T03:49:40.011Z,961.59
2019-06-08T03:50:21.822Z,961.64
2019-06-08T03:51:20.713Z,961.60
2019-06-08T03:52:20.709Z,961.56
2019-06-08T03:53:20.721Z,961.59
2019-06-08T03:54:20.710Z,961.61
2019-06-08T03:55:20.683Z,961.66
2019-06-08T03:56:20.660Z,961.70
2019-06-08T03:57:20.689Z,961.62
2019-06-08T03:58:20.644Z,961.69
2019-06-08T03:59:20.633Z,961.73
2019-06-08T04:00:20.614Z,961.68
2019-06-08T04:01:20.633Z,961.66
2019-06-08T04:02:20.599Z,961.79
2019-06-08T04:03:20.639Z,961.72
2019-06-08T04:04:20.597Z,961.77
2019-06-08T04:05:20.570Z,961.77
2019-06-08T04:06:20.645Z,961.78
2019-06-08T04:07:20.579Z,961.84
2019-06-08T04:08:20.578Z,961.76
2019-06-08T04:09:20.523Z,961.80
2019-06-08T04:10:20.508Z,961.82
2019-06-08T04:11:20.494Z,961.83
2019-06-08T04:12:20.486Z,961.89
2019-06-08T04:13:20.503Z,961.88
2019-06-08T04:14:20.472Z,961.89
2019-06-08T04:15:20.457Z,961.92
2019-06-08T04:16:20.445Z,961.91
2019-06-08T04:17:20.423Z,961.95
2019-06-08T04:18:20.446Z,961.91
2019-06-08T04:19:20.415Z,961.98
2019-06-08T04:20:20.403Z,961.91
2019-06-08T04:21:20.426Z,961.95
2019-06-08T04:22:20.407Z,961.95
2019-06-08T04:23:20.378Z,961.95
2019-06-08T04:24:20.376Z,962.00
2019-06-08T04:25:20.417Z,962.01
2019-06-08T04:26:20.366Z,962.05
2019-06-08T04:27:20.356Z,962.06
2019-06-08T04:28:20.337Z,961.97
2019-06-08T04:29:20.334Z,962.00
2019-06-08T04:30:20.288Z,962.05
2019-06-08T04:31:20.355Z,962.05
2019-06-08T04:32:20.265Z,962.00
2019-06-08T04:33:20.254Z,962.07
2019-06-08T04:34:20.246Z,962.06
2019-06-08T04:35:20.267Z,962.09
2019-06-08T04:36:20.255Z,962.05
2019-06-08T04:37:20.206Z,962.06
2019-06-08T04:38:20.207Z,962.09
2019-06-08T04:39:20.215Z,962.10
2019-06-08T04:40:20.191Z,962.08
2019-06-08T04:41:20.196Z,962.15
2019-06-08T04:42:20.175Z,962.14
2019-06-08T04:43:20.146Z,962.19
2019-06-08T04:44:20.166Z,962.22
2019-06-08T04:45:20.120Z,962.05
2019-06-08T04:46:20.158Z,962.08
2019-06-08T04:47:20.102Z,962.23
2019-06-08T04:48:20.079Z,962.23
2019-06-08T04:49:20.095Z,962.24
2019-06-08T04:50:23.485Z,962.15
2019-06-08T04:51:20.193Z,962.11
2019-06-08T04:52:20.071Z,962.23
2019-06-08T04:53:20.028Z,962.38
2019-06-08T04:54:20.020Z,962.25
2019-06-08T04:55:20.011Z,962.31
2019-06-08T04:56:20.030Z,962.37
2019-06-08T04:57:20.008Z,962.44
2019-06-08T04:58:20.017Z,962.45
2019-06-08T04:59:20.019Z,962.41
2019-06-08T05:00:19.980Z,962.49
2019-06-08T05:01:19.959Z,962.56
2019-06-08T05:02:19.989Z,962.54
2019-06-08T05:03:19.948Z,962.55
2019-06-08T05:04:19.927Z,962.56
2019-06-08T05:05:19.968Z,962.64
2019-06-08T05:06:19.973Z,962.63
2019-06-08T05:07:19.936Z,962.62
2019-06-08T05:08:19.936Z,962.65
2019-06-08T05:09:19.898Z,962.65
2019-06-08T05:10:19.914Z,962.71
2019-06-08T05:11:19.829Z,962.64
2019-06-08T05:12:19.828Z,962.63
2019-06-08T05:13:19.824Z,962.66
2019-06-08T05:14:19.819Z,962.70
2019-06-08T05:15:19.848Z,962.68
2019-06-08T05:16:19.794Z,962.73
2019-06-08T05:17:19.824Z,962.73
2019-06-08T05:18:19.761Z,962.76
2019-06-08T05:19:19.752Z,962.71
2019-06-08T05:20:19.817Z,962.68
2019-06-08T05:21:19.766Z,962.69
2019-06-08T05:22:21.021Z,962.77
2019-06-08T05:23:19.741Z,962.76
2019-06-08T05:24:19.694Z,962.82
2019-06-08T05:25:19.683Z,962.79
2019-06-08T05:26:19.714Z,962.80
2019-06-08T05:27:19.782Z,962.81
2019-06-08T05:28:19.676Z,962.79
2019-06-08T05:29:19.681Z,962.86
2019-06-08T05:30:19.640Z,962.82
2019-06-08T05:31:19.652Z,962.89
2019-06-08T05:32:19.653Z,962.90
2019-06-08T05:33:19.632Z,962.90
2019-06-08T05:34:19.650Z,962.98
2019-06-08T05:35:19.613Z,962.96
2019-06-08T05:36:19.601Z,962.97
2019-06-08T05:37:19.599Z,962.95
2019-06-08T05:38:19.561Z,962.97
2019-06-08T05:39:19.532Z,962.97
2019-06-08T05:40:19.536Z,962.97
2019-06-08T05:41:19.527Z,962.97
2019-06-08T05:42:19.520Z,963.02
2019-06-08T05:43:19.506Z,962.98
2019-06-08T05:44:19.540Z,963.03
2019-06-08T05:45:19.459Z,963.00
2019-06-08T05:46:19.492Z,963.01
2019-06-08T05:47:19.435Z,963.03
2019-06-08T05:48:19.422Z,963.05
2019-06-08T05:49:19.414Z,963.10
2019-06-08T05:50:19.403Z,963.15
2019-06-08T05:51:19.434Z,963.14
2019-06-08T05:52:19.381Z,963.18
2019-06-08T05:53:19.397Z,963.18
2019-06-08T05:54:19.372Z,963.23
2019-06-08T05:55:19.372Z,963.17
2019-06-08T05:56:19.345Z,963.23
2019-06-08T05:57:19.322Z,963.26
2019-06-08T05:58:19.363Z,963.20
2019-06-08T05:59:19.324Z,963.28
2019-06-08T06:00:19.313Z,963.29
2019-06-08T06:01:19.292Z,963.31
2019-06-08T06:02:19.285Z,963.36
2019-06-08T06:03:19.264Z,963.31
2019-06-08T06:04:19.256Z,963.29
2019-06-08T06:05:19.276Z,963.39
2019-06-08T06:06:19.233Z,963.32
2019-06-08T06:07:19.214Z,963.45
2019-06-08T06:08:19.557Z,963.50
2019-06-08T06:09:19.204Z,963.47
2019-06-08T06:10:19.241Z,963.40
2019-06-08T06:11:19.175Z,963.46
2019-06-08T06:12:19.161Z,963.56
2019-06-08T06:13:19.156Z,963.56
2019-06-08T06:14:19.210Z,963.55
2019-06-08T06:15:19.145Z,963.52
2019-06-08T06:16:19.164Z,963.63
2019-06-08T06:17:19.126Z,963.49
2019-06-08T06:18:19.092Z,963.65
2019-06-08T06:19:19.094Z,963.66
2019-06-08T06:20:19.086Z,963.68
2019-06-08T06:21:19.100Z,963.67
2019-06-08T06:22:19.046Z,963.74
2019-06-08T06:23:19.157Z,963.72
2019-06-08T06:24:19.025Z,963.69
2019-06-08T06:25:19.028Z,963.64
2019-06-08T06:26:19.057Z,963.65
2019-06-08T06:27:18.994Z,963.64
2019-06-08T06:28:19.009Z,963.69
2019-06-08T06:29:18.975Z,963.76
2019-06-08T06:30:18.969Z,963.74
2019-06-08T06:31:18.975Z,963.74
2019-06-08T06:32:18.964Z,963.73
2019-06-08T06:33:18.936Z,963.69
2019-06-08T06:34:18.930Z,963.79
2019-06-08T06:35:18.906Z,963.79
2019-06-08T06:36:18.939Z,963.86
2019-06-08T06:37:18.922Z,963.73
2019-06-08T06:38:18.887Z,963.77
2019-06-08T06:39:18.878Z,963.78
2019-06-08T06:40:18.856Z,963.82
2019-06-08T06:41:18.856Z,963.81
2019-06-08T06:42:19.028Z,963.89
2019-06-08T06:43:18.825Z,963.84
2019-06-08T06:44:18.818Z,963.84
2019-06-08T06:45:18.806Z,963.92
2019-06-08T06:46:18.787Z,963.87
2019-06-08T06:47:18.798Z,963.78
2019-06-08T06:48:18.808Z,963.81
2019-06-08T06:49:18.751Z,963.77
2019-06-08T06:50:18.753Z,963.80
2019-06-08T06:51:26.312Z,963.80
2019-06-08T06:52:19.747Z,963.80
2019-06-08T06:53:18.747Z,963.79
2019-06-08T06:54:18.729Z,963.86
2019-06-08T06:55:18.723Z,963.90
2019-06-08T06:56:18.723Z,963.95
2019-06-08T06:57:18.689Z,963.97
2019-06-08T06:58:18.661Z,963.90
2019-06-08T06:59:18.678Z,964.02
2019-06-08T07:00:18.638Z,964.03
2019-06-08T07:01:18.736Z,963.99
2019-06-08T07:02:18.620Z,963.98
2019-06-08T07:03:18.618Z,964.04
2019-06-08T07:04:18.599Z,964.06
2019-06-08T07:05:18.588Z,963.99
2019-06-08T07:06:18.587Z,964.10
2019-06-08T07:07:18.565Z,964.02
2019-06-08T07:08:18.579Z,964.04
2019-06-08T07:09:18.531Z,964.04
2019-06-08T07:10:18.553Z,963.96
2019-06-08T07:11:18.510Z,964.00
2019-06-08T07:12:18.519Z,964.03
2019-06-08T07:13:18.490Z,963.99
2019-06-08T07:14:18.501Z,964.09
2019-06-08T07:15:18.477Z,964.11
2019-06-08T07:16:19.439Z,964.05
2019-06-08T07:17:18.450Z,964.06
2019-06-08T07:18:18.461Z,964.03
2019-06-08T07:19:18.432Z,964.06
2019-06-08T07:20:18.437Z,964.05
2019-06-08T07:21:18.431Z,964.12
2019-06-08T07:22:18.398Z,964.08
2019-06-08T07:23:18.398Z,964.05
2019-06-08T07:24:18.411Z,964.11
2019-06-08T07:25:18.414Z,964.09
2019-06-08T07:26:18.371Z,964.10
2019-06-08T07:27:18.340Z,964.16
2019-06-08T07:28:18.331Z,964.18
2019-06-08T07:29:18.316Z,964.20
2019-06-08T07:30:18.355Z,964.23
2019-06-08T07:31:18.339Z,964.20
2019-06-08T07:32:18.291Z,964.21
2019-06-08T07:33:18.274Z,964.23
2019-06-08T07:34:18.268Z,964.25
2019-06-08T07:35:18.256Z,964.23
2019-06-08T07:36:18.265Z,964.29
2019-06-08T07:37:18.239Z,964.21
2019-06-08T07:38:18.269Z,964.22
2019-06-08T07:39:18.285Z,964.26
2019-06-08T07:40:18.212Z,964.23
2019-06-08T07:41:18.215Z,964.26
2019-06-08T07:42:18.197Z,964.25
2019-06-08T07:43:18.225Z,964.25
2019-06-08T07:44:18.192Z,964.25
2019-06-08T07:45:18.183Z,964.29
2019-06-08T07:46:18.132Z,964.28
2019-06-08T07:47:18.156Z,964.31
2019-06-08T07:48:18.132Z,964.27
2019-06-08T07:49:18.092Z,964.32
2019-06-08T07:50:18.089Z,964.32
2019-06-08T07:51:18.075Z,964.27
2019-06-08T07:52:18.092Z,964.35
2019-06-08T07:53:18.084Z,964.27
2019-06-08T07:54:18.041Z,964.28
2019-06-08T07:55:18.048Z,964.30
2019-06-08T07:56:18.035Z,964.27
2019-06-08T07:57:18.042Z,964.16
2019-06-08T07:58:18.009Z,964.18
2019-06-08T07:59:17.995Z,964.23
2019-06-08T08:00:17.990Z,964.16
2019-06-08T08:01:18.026Z,964.21
2019-06-08T08:02:17.962Z,964.22
2019-06-08T08:03:17.994Z,964.18
2019-06-08T08:04:17.942Z,964.25
2019-06-08T08:05:17.916Z,964.20
2019-06-08T08:06:17.906Z,964.25
2019-06-08T08:07:17.906Z,964.30
2019-06-08T08:08:17.936Z,964.23
2019-06-08T08:09:17.906Z,964.27
2019-06-08T08:10:17.956Z,964.29
2019-06-08T08:11:17.861Z,964.33
2019-06-08T08:12:17.937Z,964.33
2019-06-08T08:13:17.834Z,964.32
2019-06-08T08:14:17.870Z,964.37
2019-06-08T08:15:17.834Z,964.33
2019-06-08T08:16:17.805Z,964.34
2019-06-08T08:17:17.827Z,964.34
2019-06-08T08:18:17.792Z,964.27
2019-06-08T08:19:17.761Z,964.30
2019-06-08T08:20:17.767Z,964.35
2019-06-08T08:21:23.210Z,964.34
2019-06-08T08:22:25.682Z,964.35
2019-06-08T08:23:18.717Z,964.33
2019-06-08T08:24:17.746Z,964.39
2019-06-08T08:25:18.207Z,964.35
2019-06-08T08:26:17.687Z,964.35
2019-06-08T08:27:18.054Z,964.36
2019-06-08T08:28:17.815Z,964.40
2019-06-08T08:29:17.769Z,964.38
2019-06-08T08:30:20.365Z,964.41
2019-06-08T08:31:18.535Z,964.38
2019-06-08T08:32:18.821Z,964.38
2019-06-08T08:33:18.332Z,964.38
2019-06-08T08:34:18.286Z,964.41
2019-06-08T08:35:18.539Z,964.38
2019-06-08T08:36:18.029Z,964.39
2019-06-08T08:37:17.696Z,964.40
2019-06-08T08:38:17.782Z,964.34
2019-06-08T08:39:17.806Z,964.45
2019-06-08T08:40:17.905Z,964.37
2019-06-08T08:41:18.327Z,964.45
2019-06-08T08:42:17.989Z,964.40
2019-06-08T08:43:17.901Z,964.41
2019-06-08T08:44:17.787Z,964.46
2019-06-08T08:45:18.293Z,964.48
2019-06-08T08:46:17.477Z,964.48
2019-06-08T08:47:18.728Z,964.42
2019-06-08T08:48:25.374Z,964.43
2019-06-08T08:49:18.436Z,964.48
2019-06-08T08:50:18.410Z,964.61
2019-06-08T08:51:17.899Z,964.50
2019-06-08T08:52:17.652Z,964.57
2019-06-08T08:53:18.044Z,964.56
2019-06-08T08:54:18.354Z,964.58
2019-06-08T08:55:20.184Z,964.62
2019-06-08T08:56:18.160Z,964.60
2019-06-08T08:57:18.145Z,964.60
2019-06-08T08:58:18.612Z,964.64
2019-06-08T08:59:17.749Z,964.61
2019-06-08T09:00:18.093Z,964.60
2019-06-08T09:01:20.467Z,964.59
2019-06-08T09:02:21.145Z,964.64
2019-06-08T09:03:28.990Z,964.60
2019-06-08T09:04:18.632Z,964.63
2019-06-08T09:05:18.123Z,964.66
2019-06-08T09:06:18.159Z,964.66
2019-06-08T09:07:18.362Z,964.68
2019-06-08T09:08:18.270Z,964.64
2019-06-08T09:09:18.799Z,964.67
2019-06-08T09:10:18.276Z,964.64
2019-06-08T09:11:17.576Z,964.54
2019-06-08T09:12:18.343Z,964.64
2019-06-08T09:13:18.657Z,964.58
2019-06-08T09:14:18.393Z,964.59
2019-06-08T09:15:19.195Z,964.62
2019-06-08T09:16:17.697Z,964.68
2019-06-08T09:17:18.090Z,964.69
2019-06-08T09:18:18.791Z,964.71
2019-06-08T09:19:20.555Z,964.70
2019-06-08T09:20:19.165Z,964.69
2019-06-08T09:21:18.667Z,964.63
2019-06-08T09:22:18.782Z,964.69
2019-06-08T09:23:21.653Z,964.62
2019-06-08T09:24:18.641Z,964.66
2019-06-08T09:25:18.195Z,964.71
2019-06-08T09:26:17.663Z,964.66
2019-06-08T09:27:17.891Z,964.74
2019-06-08T09:28:18.613Z,964.73
2019-06-08T09:29:18.916Z,964.68
2019-06-08T09:30:18.309Z,964.70
2019-06-08T09:31:18.647Z,964.68
2019-06-08T09:32:18.045Z,964.69
2019-06-08T09:33:18.818Z,964.65
2019-06-08T09:34:19.461Z,964.65
2019-06-08T09:35:18.692Z,964.73
2019-06-08T09:36:17.717Z,964.73
2019-06-08T09:37:18.521Z,964.80
2019-06-08T09:38:18.602Z,964.83
2019-06-08T09:39:18.637Z,964.86
2019-06-08T09:40:16.895Z,964.88
2019-06-08T09:41:18.618Z,964.92
2019-06-08T09:42:20.931Z,964.89
2019-06-08T09:43:18.897Z,964.88
2019-06-08T09:44:18.464Z,964.80
2019-06-08T09:45:18.220Z,964.76
2019-06-08T09:46:17.867Z,964.78
2019-06-08T09:47:18.136Z,964.81
2019-06-08T09:48:18.279Z,964.79
2019-06-08T09:49:18.760Z,964.82
2019-06-08T09:50:18.498Z,964.84
2019-06-08T09:51:18.685Z,964.78
2019-06-08T09:52:18.494Z,964.79
2019-06-08T09:53:26.710Z,964.85
2019-06-08T09:54:18.442Z,964.84
2019-06-08T09:55:18.152Z,964.84
2019-06-08T09:56:18.504Z,964.88
2019-06-08T09:57:18.948Z,964.85
2019-06-08T09:58:18.032Z,964.88
2019-06-08T09:59:18.659Z,964.88
2019-06-08T10:00:21.297Z,964.89
2019-06-08T10:01:18.446Z,964.85
2019-06-08T10:02:18.485Z,964.83
2019-06-08T10:03:18.590Z,964.83
2019-06-08T10:04:16.641Z,964.93
2019-06-08T10:05:18.577Z,964.98
2019-06-08T10:06:18.292Z,964.89
2019-06-08T10:07:18.579Z,964.89
2019-06-08T10:08:20.224Z,964.95
2019-06-08T10:09:18.635Z,964.93
2019-06-08T10:10:18.142Z,964.87
2019-06-08T10:11:16.533Z,964.93
2019-06-08T10:12:18.243Z,964.81
2019-06-08T10:13:18.697Z,964.80
2019-06-08T10:14:18.786Z,964.85
2019-06-08T10:15:17.896Z,964.85
2019-06-08T10:16:18.529Z,964.78
2019-06-08T10:17:20.536Z,964.85
2019-06-08T10:18:17.684Z,964.81
2019-06-08T10:19:18.512Z,964.74
2019-06-08T10:20:18.442Z,964.79
2019-06-08T10:21:18.276Z,964.83
2019-06-08T10:22:18.173Z,964.93
2019-06-08T10:23:30.326Z,964.82
2019-06-08T10:24:17.422Z,964.80
2019-06-08T10:25:16.399Z,964.79
2019-06-08T10:26:17.857Z,964.80
2019-06-08T10:27:18.736Z,964.76
2019-06-08T10:28:21.006Z,964.77
2019-06-08T10:29:18.398Z,964.84
2019-06-08T10:30:16.345Z,964.75
2019-06-08T10:31:17.606Z,964.80
2019-06-08T10:32:18.057Z,964.83
2019-06-08T10:33:18.292Z,964.84
2019-06-08T10:34:16.312Z,964.79
2019-06-08T10:35:20.618Z,964.82
2019-06-08T10:36:18.252Z,964.89
2019-06-08T10:37:18.454Z,964.88
2019-06-08T10:38:18.114Z,964.84
2019-06-08T10:39:16.229Z,964.84
2019-06-08T10:40:18.595Z,964.81
2019-06-08T10:41:21.097Z,964.82
2019-06-08T10:42:18.042Z,964.92
2019-06-08T10:43:17.486Z,964.87
2019-06-08T10:44:18.274Z,964.91
2019-06-08T10:45:18.340Z,964.93
2019-06-08T10:46:20.403Z,964.89
2019-06-08T10:47:16.146Z,964.91
2019-06-08T10:48:17.932Z,964.90
2019-06-08T10:49:18.439Z,964.87
2019-06-08T10:50:19.066Z,964.73
2019-06-08T10:51:18.191Z,964.76
2019-06-08T10:52:20.118Z,964.84
2019-06-08T10:53:16.733Z,964.84
2019-06-08T10:54:17.453Z,964.87
2019-06-08T10:55:18.071Z,964.86
2019-06-08T10:56:18.665Z,964.88
2019-06-08T10:57:18.124Z,964.84
2019-06-08T10:58:19.205Z,964.85
2019-06-08T10:59:18.334Z,964.94
2019-06-08T11:00:22.542Z,964.98
2019-06-08T11:01:18.847Z,964.86
2019-06-08T11:02:18.652Z,964.90
2019-06-08T11:03:15.985Z,964.84
2019-06-08T11:04:18.472Z,964.92
2019-06-08T11:05:18.122Z,964.87
2019-06-08T11:06:18.562Z,964.87
2019-06-08T11:07:16.578Z,964.92
2019-06-08T11:08:18.680Z,964.78
2019-06-08T11:09:18.731Z,964.89
2019-06-08T11:10:15.888Z,964.85
2019-06-08T11:11:19.562Z,964.87
2019-06-08T11:12:18.266Z,964.82
2019-06-08T11:13:18.720Z,964.83
2019-06-08T11:14:18.180Z,964.82
2019-06-08T11:15:15.841Z,964.79
2019-06-08T11:16:18.028Z,964.81
2019-06-08T11:17:17.878Z,964.79
2019-06-08T11:18:18.422Z,964.82
2019-06-08T11:19:17.882Z,964.87
2019-06-08T11:20:15.781Z,964.81
2019-06-08T11:21:18.440Z,964.76
2019-06-08T11:22:17.919Z,964.80
2019-06-08T11:23:15.784Z,964.84
2019-06-08T11:24:23.727Z,964.71
2019-06-08T11:25:19.764Z,964.72
2019-06-08T11:26:20.929Z,964.73
2019-06-08T11:27:18.690Z,964.74
2019-06-08T11:28:18.430Z,964.73
2019-06-08T11:29:15.681Z,964.71
2019-06-08T11:30:20.410Z,964.68
2019-06-08T11:31:19.444Z,964.68
2019-06-08T11:32:18.223Z,964.66
2019-06-08T11:33:15.690Z,964.61
2019-06-08T11:34:15.644Z,964.65
2019-06-08T11:35:17.593Z,964.58
2019-06-08T11:36:18.578Z,964.64
2019-06-08T11:37:20.623Z,964.63
2019-06-08T11:38:17.535Z,964.67
2019-06-08T11:39:15.573Z,964.62
2019-06-08T11:40:18.084Z,964.66
2019-06-08T11:41:19.029Z,964.62
2019-06-08T11:42:15.565Z,964.55
2019-06-08T11:43:18.167Z,964.54
2019-06-08T11:44:17.741Z,964.55
2019-06-08T11:45:17.682Z,964.61
2019-06-08T11:46:18.370Z,964.55
2019-06-08T11:47:18.190Z,964.58
2019-06-08T11:48:18.044Z,964.44
2019-06-08T11:49:18.487Z,964.54
2019-06-08T11:50:17.911Z,964.51
2019-06-08T11:51:15.445Z,964.56
2019-06-08T11:52:15.477Z,964.49
2019-06-08T11:53:17.863Z,964.43
2019-06-08T11:54:29.693Z,964.47
2019-06-08T11:55:18.145Z,964.47
2019-06-08T11:56:15.385Z,964.51
2019-06-08T11:57:17.490Z,964.53
2019-06-08T11:58:19.351Z,964.47
2019-06-08T11:59:16.358Z,964.45
2019-06-08T12:00:27.254Z,964.52
2019-06-08T12:01:18.509Z,964.48
2019-06-08T12:02:15.368Z,964.58
2019-06-08T12:03:15.316Z,964.55
2019-06-08T12:04:15.309Z,964.47
2019-06-08T12:05:15.302Z,964.59
2019-06-08T12:06:15.296Z,964.54
2019-06-08T12:07:15.296Z,964.53
2019-06-08T12:08:17.673Z,964.53
2019-06-08T12:09:18.501Z,964.49
2019-06-08T12:10:17.632Z,964.48
2019-06-08T12:11:18.171Z,964.45
2019-06-08T12:12:18.639Z,964.49
2019-06-08T12:13:17.730Z,964.45
2019-06-08T12:14:17.565Z,964.51
2019-06-08T12:15:18.191Z,964.49
2019-06-08T12:16:21.422Z,964.50
2019-06-08T12:17:22.178Z,964.49
2019-06-08T12:18:15.179Z,964.47
2019-06-08T12:19:17.310Z,964.54
2019-06-08T12:20:20.198Z,964.58
2019-06-08T12:21:15.129Z,964.50
2019-06-08T12:22:15.128Z,964.49
2019-06-08T12:23:15.120Z,964.52
2019-06-08T12:24:15.089Z,964.46
2019-06-08T12:25:15.100Z,964.42
2019-06-08T12:26:15.071Z,964.38
2019-06-08T12:27:28.872Z,964.35
2019-06-08T12:28:17.882Z,964.42